Pagina principale
METAR-TAF:

METAR-TAF

Aeroporti :

Portage Glacier, Alaska, Stati Uniti

latitudine: 60-47N, longitudine: 148-50W, altezza: 29 m

Osservazione

Il bollettino è stato emesso 1 ora e 1 minuti fa, alle 01:53 UTC
Vento 4 kt da direzioni variabili
Temperature 12°C
Umidità 54%
Pressione 1003 hPa
Visibilità: 16.1 km
Poco nuvoloso ad un'altezza di 4900 ft
Nubi sparse ad un'altezza di 6500 ft
Nubi sparse ad un'altezza di 12000 ft

METAR: PATO 260153Z AUTO VRB04KT 10SM FEW049 SCT065 SCT120 12/03 A2963 RMK AO2 SLP033 T01170033 TSNO

Ora: 18:54 (02:54 UTC)


TAF: mancante

Osservazioni e previsioni meteorologiche di più di 4000 aeroporti (messaggi METAR e TAF).

Le stazioni disponibili sono rappresentate dai dischi gialli e rossi sulla carta.

Puntare il mouse per vedere il nome della stazione.

Clicca sopra per visualizzare le osservazioni e previsioni meteorologiche.

Per cambiare la mappa : fare clic sui pulsanti verdi con una croce nera per ingrandire, il pulsante verde con un trattino per diminuire, o sulla freccia verde per le mappe adiacenti.


METAR-TAF: